Flight Track Log - Related Links

Times and Time Zones

All times are in EDT time to prevent confusion due to time zone crossing. See the N545RW flight status page for this flight to view local times or setup timezone preferences in your user account.

Time Position Orientation Groundspeed Altitude Reporting Facility
EDT Latitude Longitude Course Direction KTS MPH feet Rate Location/Type
Tue 11:12:15 AM 34.9542 -85.3481 270° West 248 285 6,200  Level Memphis Center
Tue 11:13:15 AM 34.9553 -85.4292 271° West 243 280 8,100 2,000 Climbing Memphis Center
Tue 11:14:15 AM 34.9481 -85.5133 264° West 248 285 10,200 1,950 Climbing Memphis Center
Tue 11:15:15 AM 34.9472 -85.5969 269° West 248 285 12,000 1,800 Climbing Memphis Center
Tue 11:16:00 AM 34.9578 -85.7615 270° West  Level Estimated
Tue 11:16:15 AM 34.9461 -85.6756 269° West 253 291 13,800  Level Memphis Center
Tue 11:17:15 AM 34.9450 -85.7617 269° West 253 291 15,600 1,700 Climbing Memphis Center
Tue 11:18:15 AM 34.9419 -85.8428 267° West 253 291 17,200 1,600 Climbing Memphis Center
Tue 11:18:45 AM 34.9428 -85.8936 271° West 254 292 18,000 1,533 Climbing Atlanta Center
Tue 11:19:45 AM 34.9414 -85.9747 269° West 249 287 19,500 1,500 Climbing Atlanta Center
Tue 11:20:45 AM 34.9403 -86.0556 269° West 249 287 21,000 1,200 Climbing Atlanta Center
Tue 11:22:45 AM 34.9375 -86.2203 269° West 249 287 23,100 1,033 Climbing Atlanta Center
Tue 11:23:45 AM 34.9483 -86.3067 279° West 255 293 24,100 1,000 Climbing Atlanta Center
Tue 11:24:45 AM 34.9550 -86.3931 275° West 255 293 25,100 1,000 Climbing Atlanta Center
Tue 11:25:45 AM 34.9639 -86.4819 277° West 255 293 26,100 1,000 Climbing Atlanta Center
Tue 11:26:45 AM 34.9725 -86.5683 277° West 255 293 27,100 957 Climbing Atlanta Center
Tue 11:28:03 AM 34.9858 -86.6717 279° West 261 300 28,300 957 Climbing Memphis Center
Tue 11:29:03 AM 34.9967 -86.7550 279° West 261 300 29,300 1,000 Climbing Memphis Center
Tue 11:30:03 AM 35.0117 -86.8381 282° West 256 295 30,300 850 Climbing Memphis Center
Tue 11:31:03 AM 35.0222 -86.9161 279° West 246 283 31,000 700 Climbing Memphis Center
Tue 11:32:03 AM 35.0347 -86.9994 280° West 246 283 31,700 700 Climbing Memphis Center
Tue 11:33:03 AM 35.0456 -87.0825 279° West 252 290 32,400 700 Climbing Memphis Center
Tue 11:34:03 AM 35.0578 -87.1608 281° West 250 288 33,100 700 Climbing Memphis Center
Tue 11:35:03 AM 35.0683 -87.2442 279° West 250 288 33,800 600 Climbing Memphis Center
Tue 11:36:03 AM 35.0808 -87.3325 280° West 250 288 34,300 500 Climbing Memphis Center
Tue 11:37:03 AM 35.0933 -87.4106 281° West 245 282 34,800 500 Climbing Memphis Center
Tue 11:38:03 AM 35.1056 -87.4914 280° West 238 274 35,300 550 Climbing Memphis Center
Tue 11:39:03 AM 35.1178 -87.5697 281° West 238 274 35,900 500 Climbing Memphis Center
Tue 11:40:03 AM 35.1383 -87.6453 288° West 246 283 36,300 450 Climbing Memphis Center
Tue 11:41:03 AM 35.1503 -87.7186 281° West 240 276 36,800 500 Climbing Memphis Center
Tue 11:42:03 AM 35.1686 -87.7917 287° West 235 270 37,300 450 Climbing Memphis Center
Tue 11:43:03 AM 35.1825 -87.8647 283° West 230 265 37,700 350 Climbing Memphis Center
Tue 11:44:03 AM 35.1964 -87.9331 284° West 224 258 38,000 150 Climbing Memphis Center
Tue 11:45:03 AM 35.2083 -88.0089 281° West 224 258 38,000  Level Memphis Center
Tue 11:46:03 AM 35.2222 -88.0897 282° West 229 264 38,000  Level Memphis Center
Tue 11:47:03 AM 35.2364 -88.1708 282° West 243 280 38,000  Level Memphis Center
Tue 11:48:03 AM 35.2525 -88.2594 283° West 254 292 38,000  Level Memphis Center
Tue 11:49:03 AM 35.2664 -88.3431 282° West 259 298 38,000  Level Memphis Center
Tue 11:50:03 AM 35.2822 -88.4342 282° West 259 298 38,000  Level Memphis Center
Tue 11:51:03 AM 35.2919 -88.5256 277° West 253 291 38,000  Level Memphis Center
Tue 11:52:03 AM 35.2789 -88.6172 260° West 258 297 38,000  Level Memphis Center
Tue 11:53:03 AM 35.2653 -88.7017 259° West 258 297 38,000  Level Memphis Center
Tue 11:54:03 AM 35.2497 -88.7933 258° West 263 303 38,000  Level Memphis Center
Tue 11:55:03 AM 35.2364 -88.8850 260° West 263 303 38,000  Level Memphis Center
Tue 11:56:03 AM 35.2250 -88.9744 261° West 270 311 38,000 -200 Level Memphis Center
Tue 11:57:03 AM 35.2111 -89.0558 258° West 275 316 37,600 -700 Descending Memphis Center
Tue 11:58:03 AM 35.1956 -89.1553 259° West 290 334 36,600 -950 Descending Memphis Center
Tue 11:59:03 AM 35.1797 -89.2597 260° West 308 354 35,700 -900 Descending Memphis Center
Tue 12:00:03 PM 35.1639 -89.3639 259° West 313 360 34,800 -800 Descending Memphis Center
Tue 12:01:03 PM 35.1461 -89.4708 259° West 318 366 34,100 -750 Descending Memphis Center
Tue 12:02:03 PM 35.1300 -89.5775 260° West 318 366 33,300 -550 Descending Memphis Center
Tue 12:03:03 PM 35.1139 -89.6792 259° West 313 360 33,000 -150 Descending Memphis Center
Tue 12:04:03 PM 35.0978 -89.7836 259° West 313 360 33,000  Level Memphis Center
Tue 12:05:03 PM 35.0836 -89.8825 260° West 313 360 33,000  Level Memphis Center
Tue 12:06:03 PM 35.0672 -89.9842 259° West 313 360 33,000  Level Memphis Center
Tue 12:07:03 PM 35.0489 -90.0831 257° West 308 354 33,000  Level Memphis Center
Tue 12:08:03 PM 35.0303 -90.1897 258° West 303 349 33,000  Level Memphis Center
Tue 12:09:03 PM 35.0136 -90.2886 258° West 298 343 33,000  Level Memphis Center
Tue 12:10:03 PM 34.9969 -90.3875 258° West 298 343 33,000  Level Memphis Center
Tue 12:11:03 PM 34.9803 -90.4864 258° West 298 343 33,000  Level Memphis Center
Tue 12:12:03 PM 34.9614 -90.5853 257° West 298 343 33,000  Level Memphis Center
Tue 12:13:03 PM 34.9444 -90.6864 258° West 298 343 33,000  Level Memphis Center
Tue 12:14:03 PM 34.9275 -90.7825 258° West 298 343 33,000 -400 Level Memphis Center
Tue 12:15:03 PM 34.9103 -90.8864 259° West 303 349 32,200 -500 Descending Memphis Center
Tue 12:16:03 PM 34.8931 -90.9900 259° West 314 361 32,000 -100 Descending Memphis Center
Tue 12:17:03 PM 34.8739 -91.0936 257° West 314 361 32,000  Level Memphis Center
Tue 12:18:03 PM 34.8564 -91.1972 258° West 314 361 32,000  Level Memphis Center
Tue 12:19:03 PM 34.8411 -91.2883 258° West 314 361 32,000  Level Memphis Center
Tue 12:20:03 PM 34.8236 -91.3867 258° West 309 356 32,000  Level Memphis Center
Tue 12:21:03 PM 34.8042 -91.4928 257° West 314 361 32,000  Level Memphis Center
Tue 12:22:03 PM 34.7886 -91.5911 259° West 314 361 32,000  Level Memphis Center
Tue 12:23:03 PM 34.7686 -91.6919 256° West 314 361 32,000  Level Memphis Center
Tue 12:24:03 PM 34.7467 -91.7978 256° West 309 356 32,000  Level Memphis Center
Tue 12:25:03 PM 34.7289 -91.8986 258° West 309 356 32,000  Level Memphis Center
Tue 12:26:03 PM 34.7086 -92.0017 257° West 309 356 32,000  Level Memphis Center
Tue 12:27:03 PM 34.6928 -92.1025 259° West 309 356 32,000  Level Memphis Center
Tue 12:28:03 PM 34.6725 -92.2031 256° West 309 356 32,000  Level Memphis Center
Tue 12:29:03 PM 34.6458 -92.3008 252° West 309 356 32,000  Level Memphis Center
Tue 12:30:03 PM 34.6194 -92.3989 252° West 314 361 32,000  Level Memphis Center
Tue 12:31:03 PM 34.5928 -92.4967 252° West 314 361 32,000  Level Memphis Center
Tue 12:32:03 PM 34.5681 -92.5942 253° West 314 361 32,000  Level Memphis Center
Tue 12:33:03 PM 34.5411 -92.6944 252° West 314 361 32,000  Level Memphis Center
Tue 12:34:03 PM 34.5142 -92.7944 252° West 309 356 32,000  Level Memphis Center
Tue 12:35:03 PM 34.4892 -92.8944 253° West 309 356 32,000  Level Memphis Center
Tue 12:36:03 PM 34.4622 -92.9919 251° West 314 361 32,000  Level Memphis Center
Tue 12:37:03 PM 34.4350 -93.0894 251° West 308 354 32,000  Level Memphis Center
Tue 12:38:03 PM 34.4100 -93.1867 253° West 308 354 32,000  Level Memphis Center
Tue 12:40:16 PM 34.3553 -93.3936 252° West 309 356 32,000  Level Fort Worth Center
Tue 12:41:16 PM 34.3292 -93.4931 252° West 309 356 32,000  Level Fort Worth Center
Tue 12:42:16 PM 34.3031 -93.5922 252° West 309 356 32,000  Level Fort Worth Center
Tue 12:43:16 PM 34.2767 -93.6889 252° West 309 356 32,000  Level Fort Worth Center
Tue 12:44:16 PM 34.2483 -93.7881 251° West 309 356 32,000  Level Fort Worth Center
Tue 12:45:16 PM 34.2178 -93.8847 249° West 309 356 32,000  Level Fort Worth Center
Tue 12:46:16 PM 34.1808 -93.9817 245° Southwest 314 361 32,000  Level Fort Worth Center
Tue 12:47:16 PM 34.1439 -94.0811 246° West 319 367 32,000  Level Fort Worth Center
Tue 12:48:16 PM 34.1067 -94.1753 245° Southwest 319 367 32,000  Level Fort Worth Center
Tue 12:49:16 PM 34.0694 -94.2719 245° Southwest 319 367 32,000  Level Fort Worth Center
Tue 12:50:16 PM 34.0303 -94.3761 246° West 319 367 32,000  Level Fort Worth Center
Tue 12:51:16 PM 33.9950 -94.4700 246° West 319 367 32,000  Level Fort Worth Center
Tue 12:52:16 PM 33.9575 -94.5689 245° Southwest 324 373 32,000  Level Fort Worth Center
Tue 12:53:16 PM 33.9200 -94.6653 245° Southwest 324 373 32,000  Level Fort Worth Center
Tue 12:54:16 PM 33.8806 -94.7667 245° Southwest 324 373 32,000 -450 Level Fort Worth Center
Tue 12:55:16 PM 33.8408 -94.8678 245° Southwest 324 373 31,100 -950 Descending Fort Worth Center
Tue 12:56:16 PM 33.7992 -94.9764 245° Southwest 329 379 30,100 -950 Descending Fort Worth Center
Tue 12:57:16 PM 33.7575 -95.0850 245° Southwest 350 403 29,200 -950 Descending Fort Worth Center
Tue 12:58:16 PM 33.7133 -95.1936 244° Southwest 355 409 28,200 -950 Descending Fort Worth Center
Tue 12:59:16 PM 33.6694 -95.3044 245° Southwest 362 417 27,300 -1,200 Descending Fort Worth Center
Tue 01:00:16 PM 33.6272 -95.4103 244° Southwest 362 417 25,800 -1,700 Descending Fort Worth Center
Tue 01:01:16 PM 33.5872 -95.5183 246° West 362 417 23,900 -1,950 Descending Fort Worth Center
Tue 01:02:16 PM 33.5469 -95.6239 245° Southwest 357 411 21,900 -2,000 Descending Fort Worth Center
Tue 01:03:16 PM 33.5258 -95.7389 258° West 338 389 19,900 -1,850 Descending Fort Worth Center
Tue 01:04:16 PM 33.5167 -95.8414 264° West 338 389 18,200 -1,850 Descending Fort Worth Center
Tue 01:05:16 PM 33.5139 -95.9536 268° West 325 374 16,200 -1,850 Descending Fort Worth Center
Tue 01:06:16 PM 33.5022 -96.0433 261° West 320 368 14,500 -1,650 Descending Fort Worth Center
Tue 01:07:16 PM 33.4322 -96.1242 224° Southwest 299 344 12,900 -1,450 Descending Fort Worth Center
Tue 01:08:16 PM 33.3764 -96.1919 225° Southwest 318 366 11,600 -1,400 Descending Fort Worth Center
Tue 01:09:16 PM 33.3125 -96.2700 226° Southwest 313 360 10,100 -1,300 Descending Fort Worth Center
Tue 01:10:16 PM 33.2608 -96.3353 227° Southwest 301 346 9,000 -709 Descending Fort Worth Center
Tue 01:11:06 PM 33.2167 -96.4000 231° Southwest 296 341 8,800 -686 Descending Dallas / Fort Worth TRACON
Tue 01:12:01 PM 33.1667 -96.4667 228° Southwest 284 327 7,800 -1,150 Descending Dallas / Fort Worth TRACON
Tue 01:13:06 PM 33.0833 -96.5167 207° Southwest 278 320 6,500 -1,300 Descending Dallas / Fort Worth TRACON
Tue 01:14:01 PM 33.0333 -96.5667 220° Southwest 279 321 5,200 -1,316 Descending Dallas / Fort Worth TRACON
Tue 01:15:00 PM 32.9667 -96.6167 212° Southwest 273 314 4,000 -733 Descending Dallas / Fort Worth TRACON
Tue 01:16:12 PM 32.9000 -96.6667 212° Southwest 259 298 3,600 -545 Descending Dallas / Fort Worth TRACON
Tue 01:17:01 PM 32.8667 -96.7167 232° Southwest 240 276 2,900 -889 Descending Dallas / Fort Worth TRACON
Tue 01:18:00 PM 32.8167 -96.7667 220° Southwest 156 180 2,000 -816 Descending Dallas / Fort Worth TRACON
Tue 01:19:06 PM 32.8167 -96.8000 270° West 114 131 1,200 -727 Descending Dallas / Fort Worth TRACON

Login

Don't have an account? Register now (free) for customized features, flight alerts, and more!